Time;durP1;ratioP1;P1;durP2;ratioP2;P2;SDS_P1;SDS_P2;PMS_P1;PMS_P2;Temp;Humidity;BMP_temperature;BMP_pressure;BME280_temperature;BME280_humidity;BME280_pressure;Samples;Min_cycle;Max_cycle;Signal;HPM_P1;HPM_P2
2021/03/31 00:01:20;;;;;;;15.43;8.00;;;;;;;13.14;42.79;97676.34;4994223;28;20681;-70
2021/03/31 00:03:45;;;;;;;11.93;7.30;;;;;;;13.03;42.91;97673.63;4994081;28;20187;-70
2021/03/31 00:06:11;;;;;;;8.60;6.53;;;;;;;12.97;43.05;97677.13;5011924;28;20222;-70
2021/03/31 00:08:38;;;;;;;11.93;8.00;;;;;;;12.96;42.71;97671.06;5011753;28;20180;-70
2021/03/31 00:11:04;;;;;;;12.10;7.10;;;;;;;12.90;43.23;97671.94;5012022;28;20206;-70
2021/03/31 00:13:29;;;;;;;12.20;7.20;;;;;;;12.86;43.39;97676.03;5011228;28;20183;-72
2021/03/31 00:15:55;;;;;;;9.50;6.80;;;;;;;12.83;43.41;97674.63;5011803;28;20238;-69
2021/03/31 00:18:22;;;;;;;12.07;7.57;;;;;;;12.81;43.28;97668.00;5012427;28;20662;-70
2021/03/31 00:20:48;;;;;;;12.07;6.77;;;;;;;12.83;43.20;97672.00;5011165;28;20341;-70
2021/03/31 00:23:17;;;;;;;10.40;7.70;;;;;;;12.83;42.97;97671.19;5012050;28;20191;-70
2021/03/31 00:25:42;;;;;;;11.73;8.03;;;;;;;12.86;43.06;97668.16;5011305;28;20210;-70
2021/03/31 00:28:12;;;;;;;10.57;7.63;;;;;;;12.87;42.71;97662.63;5011808;28;20560;-69
2021/03/31 00:30:39;;;;;;;13.30;7.67;;;;;;;12.78;43.19;97658.69;5011260;28;20182;-70
2021/03/31 00:33:04;;;;;;;9.57;7.63;;;;;;;12.89;42.55;97660.59;5011430;28;20266;-71
2021/03/31 00:35:30;;;;;;;13.87;7.93;;;;;;;12.80;43.01;97654.03;4993201;28;20266;-73
2021/03/31 00:37:56;;;;;;;13.23;7.17;;;;;;;12.80;42.64;97655.88;5011559;28;20302;-71
2021/03/31 00:40:26;;;;;;;13.63;7.23;;;;;;;12.72;43.28;97659.56;5004520;28;20646;-70
2021/03/31 00:42:51;;;;;;;12.77;7.60;;;;;;;12.73;43.45;97655.94;4993021;28;20183;-71
2021/03/31 00:45:17;;;;;;;12.70;7.43;;;;;;;12.67;43.54;97654.16;5011729;28;20171;-70
2021/03/31 00:47:42;;;;;;;11.93;7.63;;;;;;;12.54;44.32;97650.88;5010645;28;20211;-70
2021/03/31 00:50:12;;;;;;;17.67;7.97;;;;;;;12.46;44.59;97655.38;5010738;28;20183;-70
2021/03/31 00:52:38;;;;;;;12.30;7.23;;;;;;;12.47;44.21;97654.38;5010134;28;20188;-70
2021/03/31 00:55:05;;;;;;;14.77;7.60;;;;;;;12.44;43.98;97654.78;5011322;28;20175;-70
2021/03/31 00:57:31;;;;;;;12.77;7.40;;;;;;;12.37;44.75;97646.16;5010565;28;20198;-71
2021/03/31 00:59:57;;;;;;;13.07;7.73;;;;;;;12.39;44.61;97651.19;5010989;28;20301;-70
2021/03/31 01:02:22;;;;;;;11.43;7.77;;;;;;;12.42;44.78;97650.78;4993890;28;20637;-70
2021/03/31 01:04:48;;;;;;;12.53;7.20;;;;;;;12.41;44.28;97654.44;5010028;28;20306;-70
2021/03/31 01:07:13;;;;;;;10.70;7.10;;;;;;;12.34;44.52;97646.59;5013012;28;20645;-71
2021/03/31 01:09:39;;;;;;;10.53;7.43;;;;;;;12.23;45.07;97646.50;5014530;28;20221;-70
2021/03/31 01:12:23;;;;;;;14.17;7.80;;;;;;;12.32;44.72;97637.31;5015550;28;20241;-70
2021/03/31 01:15:02;;;;;;;10.93;7.60;;;;;;;12.23;44.97;97639.41;5014797;28;20684;-71
2021/03/31 01:17:52;;;;;;;14.83;8.30;;;;;;;12.24;44.79;97634.97;5000817;28;20175;-71
2021/03/31 01:20:39;;;;;;;13.23;8.13;;;;;;;12.25;44.96;97634.75;5014964;28;20191;-71
2021/03/31 01:23:26;;;;;;;12.27;7.40;;;;;;;12.40;44.39;97634.41;5015240;28;20182;-71
2021/03/31 01:26:05;;;;;;;11.20;7.67;;;;;;;12.24;45.01;97638.41;5014443;28;20209;-71
2021/03/31 01:29:09;;;;;;;12.03;7.47;;;;;;;12.17;45.21;97636.84;5008050;28;20214;-71
2021/03/31 01:31:34;;;;;;;11.50;7.13;;;;;;;12.15;45.29;97633.66;4970093;28;20265;-70
2021/03/31 01:34:31;;;;;;;11.50;7.67;;;;;;;12.15;44.96;97631.03;5014954;28;20219;-71
2021/03/31 01:37:00;;;;;;;10.17;7.33;;;;;;;12.17;45.32;97621.06;5014440;28;20167;-71
2021/03/31 01:39:27;;;;;;;13.23;7.77;;;;;;;12.07;45.64;97625.00;5014833;28;20179;-70
2021/03/31 01:41:57;;;;;;;26.67;7.77;;;;;;;12.02;45.52;97616.16;5013835;28;20195;-70
2021/03/31 01:44:24;;;;;;;15.17;7.27;;;;;;;12.00;45.69;97618.19;4989512;28;20184;-71
2021/03/31 01:46:53;;;;;;;10.53;7.47;;;;;;;12.01;45.48;97612.72;5014253;28;20670;-70
2021/03/31 01:49:21;;;;;;;15.87;7.73;;;;;;;11.95;45.52;97607.53;5014305;28;20183;-70
2021/03/31 01:51:48;;;;;;;11.90;7.57;;;;;;;11.97;45.54;97605.50;5013110;28;20194;-70
2021/03/31 01:54:16;;;;;;;14.50;7.53;;;;;;;12.00;45.41;97600.59;5014377;28;20184;-70
2021/03/31 01:56:42;;;;;;;14.10;8.13;;;;;;;11.87;46.12;97598.06;5013955;28;20191;-71
2021/03/31 01:59:08;;;;;;;12.87;8.00;;;;;;;11.95;45.68;97600.44;5013698;28;20191;-69
2021/03/31 02:01:34;;;;;;;15.87;7.80;;;;;;;11.81;45.98;97600.78;4995535;28;20203;-72
2021/03/31 02:04:00;;;;;;;12.43;7.70;;;;;;;11.81;46.39;97596.34;5014328;28;20187;-70
2021/03/31 02:06:30;;;;;;;15.23;8.03;;;;;;;11.89;45.88;97592.63;5014612;28;20597;-70
2021/03/31 02:08:58;;;;;;;12.23;7.73;;;;;;;11.80;46.80;97589.47;5013093;28;20209;-71
2021/03/31 02:11:30;;;;;;;12.97;7.80;;;;;;;11.74;46.56;97587.69;4998252;28;20630;-70
2021/03/31 02:13:59;;;;;;;14.30;7.80;;;;;;;11.76;46.35;97583.00;4995493;28;20267;-70
2021/03/31 02:16:27;;;;;;;11.67;8.07;;;;;;;11.83;46.41;97582.97;5006093;28;20653;-70
2021/03/31 02:18:53;;;;;;;12.00;7.60;;;;;;;11.66;46.66;97572.16;5012125;28;20227;-70
2021/03/31 02:21:20;;;;;;;12.73;7.87;;;;;;;11.62;46.69;97571.78;5013185;28;20668;-70
2021/03/31 02:23:47;;;;;;;10.97;7.70;;;;;;;11.51;46.87;97574.28;5013253;28;20242;-70
2021/03/31 02:26:13;;;;;;;11.60;7.67;;;;;;;11.41;47.34;97568.72;5013645;28;20406;-70
2021/03/31 02:28:39;;;;;;;16.80;7.40;;;;;;;11.41;46.94;97579.22;5012916;28;20650;-70
2021/03/31 02:31:05;;;;;;;12.53;7.30;;;;;;;11.31;47.37;97563.94;5013730;28;20283;-70
2021/03/31 02:33:33;;;;;;;11.13;7.00;;;;;;;11.33;47.05;97566.31;5013793;28;20266;-72
2021/03/31 02:35:59;;;;;;;17.97;7.33;;;;;;;11.41;47.57;97566.91;5013369;28;20183;-70
2021/03/31 02:38:27;;;;;;;11.53;7.83;;;;;;;11.34;46.92;97568.75;5013921;28;20183;-70
2021/03/31 02:40:52;;;;;;;12.60;7.57;;;;;;;11.31;47.42;97558.69;4995170;28;20199;-70
2021/03/31 02:43:20;;;;;;;10.10;7.23;;;;;;;11.32;47.37;97557.66;4995707;28;20202;-71
2021/03/31 02:45:50;;;;;;;14.23;7.20;;;;;;;11.30;47.51;97564.13;5013169;28;20179;-70
2021/03/31 02:48:17;;;;;;;12.60;7.50;;;;;;;11.35;47.69;97559.06;5013071;28;20172;-69
2021/03/31 02:50:49;;;;;;;14.27;7.03;;;;;;;11.24;47.77;97558.72;5012099;28;20187;-73
2021/03/31 02:53:15;;;;;;;13.50;7.57;;;;;;;11.23;48.14;97556.31;5012915;28;20195;-70
2021/03/31 02:55:41;;;;;;;10.87;7.13;;;;;;;11.04;48.48;97552.78;5012667;28;20214;-70
2021/03/31 02:58:08;;;;;;;16.33;7.60;;;;;;;11.08;48.82;97550.56;5012912;28;20218;-70
2021/03/31 03:00:34;;;;;;;15.50;7.60;;;;;;;11.09;48.66;97550.31;5012399;28;20258;-72
2021/03/31 03:03:02;;;;;;;10.03;7.10;;;;;;;10.84;49.86;97554.69;4995495;28;20195;-71
2021/03/31 03:05:28;;;;;;;12.17;7.80;;;;;;;10.93;49.62;97552.63;5013394;28;20182;-70
2021/03/31 03:07:54;;;;;;;11.03;7.47;;;;;;;10.78;50.10;97547.66;4994732;28;20780;-72
2021/03/31 03:10:20;;;;;;;13.77;7.50;;;;;;;10.74;49.72;97539.41;5006802;28;20182;-71
2021/03/31 03:12:51;;;;;;;11.53;6.83;;;;;;;10.73;49.98;97544.88;4994676;28;20180;-71
2021/03/31 03:15:19;;;;;;;15.03;7.17;;;;;;;10.80;49.84;97549.06;5013266;28;20174;-71
2021/03/31 03:17:46;;;;;;;11.37;7.70;;;;;;;10.78;50.29;97551.09;5011837;28;20190;-71
2021/03/31 03:20:13;;;;;;;9.30;6.80;;;;;;;10.59;50.96;97549.34;5012779;28;20289;-71
2021/03/31 03:22:42;;;;;;;11.30;6.80;;;;;;;10.55;50.54;97544.72;5012356;28;20183;-72
2021/03/31 03:25:10;;;;;;;10.07;6.87;;;;;;;10.39;51.55;97541.56;5012504;28;20609;-71
2021/03/31 03:27:38;;;;;;;12.30;6.83;;;;;;;10.43;51.22;97542.75;5012625;28;20187;-71
2021/03/31 03:30:06;;;;;;;11.33;6.87;;;;;;;10.47;51.34;97543.16;4995331;28;20217;-71
2021/03/31 03:32:33;;;;;;;9.03;7.00;;;;;;;10.56;50.63;97544.53;5012331;28;20649;-71
2021/03/31 03:34:58;;;;;;;9.97;6.90;;;;;;;10.47;50.64;97550.22;4994339;28;20175;-72
2021/03/31 03:37:24;;;;;;;9.37;6.13;;;;;;;10.33;51.47;97545.00;4995388;28;20535;-72
2021/03/31 03:39:50;;;;;;;11.20;7.17;;;;;;;10.28;51.20;97547.44;5011698;28;20188;-72
2021/03/31 03:42:15;;;;;;;10.03;6.73;;;;;;;10.30;51.17;97540.19;5012477;28;20529;-71
2021/03/31 03:44:41;;;;;;;14.33;6.93;;;;;;;10.30;51.27;97536.75;5012132;28;20520;-71
2021/03/31 03:47:08;;;;;;;10.43;7.20;;;;;;;10.29;50.70;97546.44;5012535;28;20188;-70
2021/03/31 03:49:37;;;;;;;14.47;7.50;;;;;;;10.28;50.84;97538.78;5011635;28;20179;-71
2021/03/31 03:52:07;;;;;;;10.83;7.27;;;;;;;10.27;51.40;97543.19;5011572;28;20600;-71
2021/03/31 03:54:33;;;;;;;9.70;7.17;;;;;;;10.21;51.48;97536.16;5012302;28;20187;-72
2021/03/31 03:56:58;;;;;;;10.90;6.40;;;;;;;10.33;51.08;97538.97;5011784;28;20210;-72
2021/03/31 03:59:27;;;;;;;10.37;6.47;;;;;;;10.31;50.50;97536.53;5011623;28;20223;-71
2021/03/31 04:01:53;;;;;;;16.87;8.47;;;;;;;10.18;50.62;97535.78;5011658;28;20326;-71
2021/03/31 04:04:20;;;;;;;10.27;6.93;;;;;;;10.22;51.21;97536.97;5012744;28;20633;-71
2021/03/31 04:06:45;;;;;;;10.93;6.90;;;;;;;10.24;50.76;97533.16;5011121;28;20179;-72
2021/03/31 04:09:11;;;;;;;15.60;7.40;;;;;;;10.22;50.97;97534.34;5012032;28;20649;-71
2021/03/31 04:11:39;;;;;;;10.87;6.87;;;;;;;10.24;50.83;97535.78;5011665;28;20179;-72
2021/03/31 04:14:05;;;;;;;10.93;7.10;;;;;;;10.28;50.28;97533.53;5012011;28;20294;-71
2021/03/31 04:16:33;;;;;;;11.87;7.43;;;;;;;10.35;50.31;97539.56;5012407;28;20184;-72
2021/03/31 04:19:02;;;;;;;10.63;7.50;;;;;;;10.26;50.88;97540.78;5011494;28;20265;-71
2021/03/31 04:21:30;;;;;;;11.70;7.33;;;;;;;10.22;51.08;97536.97;5011580;28;20677;-71
2021/03/31 04:23:57;;;;;;;12.67;7.13;;;;;;;10.28;50.68;97541.41;5011367;28;20230;-71
2021/03/31 04:26:23;;;;;;;12.23;6.97;;;;;;;10.36;50.52;97535.94;5012008;28;20175;-71
2021/03/31 04:28:51;;;;;;;11.83;7.40;;;;;;;10.24;51.06;97533.16;4993595;28;20594;-71
2021/03/31 04:31:18;;;;;;;11.00;7.30;;;;;;;10.27;50.86;97535.34;5011793;28;20234;-72
2021/03/31 04:33:44;;;;;;;12.50;7.80;;;;;;;10.16;51.03;97541.22;4993784;28;20187;-72
2021/03/31 04:36:10;;;;;;;12.43;7.13;;;;;;;10.25;51.15;97536.56;5011838;28;20182;-72
2021/03/31 04:38:35;;;;;;;12.47;6.73;;;;;;;10.33;50.82;97533.72;5011210;28;20568;-72
2021/03/31 04:41:02;;;;;;;16.17;7.40;;;;;;;10.24;50.88;97542.81;5010433;28;20552;-71
2021/03/31 04:43:32;;;;;;;13.57;7.23;;;;;;;10.31;50.81;97546.22;5011668;28;20188;-71
2021/03/31 04:46:02;;;;;;;11.43;7.07;;;;;;;10.31;50.61;97533.91;5011475;28;20191;-72
2021/03/31 04:48:28;;;;;;;13.13;7.70;;;;;;;10.37;50.52;97542.75;5011576;28;20183;-72
2021/03/31 04:50:53;;;;;;;12.03;7.43;;;;;;;10.38;50.70;97533.91;5010174;28;20270;-72
2021/03/31 04:53:19;;;;;;;12.70;7.40;;;;;;;10.45;50.67;97541.75;5010837;28;20187;-72
2021/03/31 04:55:44;;;;;;;13.03;6.90;;;;;;;10.43;50.50;97542.75;5010700;28;20222;-72
2021/03/31 04:58:10;;;;;;;11.03;7.20;;;;;;;10.42;50.79;97542.97;5011512;28;20215;-72
2021/03/31 05:00:35;;;;;;;11.23;7.50;;;;;;;10.38;50.93;97542.56;5010649;28;20227;-72
2021/03/31 05:03:01;;;;;;;11.93;7.43;;;;;;;10.39;50.68;97546.81;5011181;28;20232;-72
2021/03/31 05:05:26;;;;;;;11.43;7.07;;;;;;;10.49;50.65;97540.31;5011429;28;20236;-72
2021/03/31 05:07:52;;;;;;;11.80;7.13;;;;;;;10.40;50.62;97542.38;4992702;28;20183;-72
2021/03/31 05:10:17;;;;;;;12.67;7.23;;;;;;;10.35;51.00;97542.19;5010844;28;20199;-72
2021/03/31 05:12:43;;;;;;;12.70;7.03;;;;;;;10.33;51.17;97541.56;5011209;28;20191;-72
2021/03/31 05:15:08;;;;;;;9.67;7.10;;;;;;;10.35;51.18;97542.19;5011671;28;20183;-71
2021/03/31 05:17:34;;;;;;;11.23;7.03;;;;;;;10.48;51.16;97539.50;5011353;28;20179;-72
2021/03/31 05:20:00;;;;;;;13.90;7.33;;;;;;;10.54;51.37;97548.34;5010666;28;20513;-72
2021/03/31 05:22:26;;;;;;;15.17;6.77;;;;;;;10.52;51.35;97542.53;5011236;28;20167;-71
2021/03/31 05:24:51;;;;;;;12.57;7.67;;;;;;;10.59;51.56;97544.09;4976912;28;20656;-71
2021/03/31 05:27:17;;;;;;;12.70;7.43;;;;;;;10.58;51.38;97539.91;5011989;28;20230;-71
2021/03/31 05:29:43;;;;;;;11.47;7.10;;;;;;;10.55;52.29;97536.88;5010432;28;20182;-72
2021/03/31 05:32:08;;;;;;;12.73;6.87;;;;;;;10.35;52.77;97543.00;4993592;28;20274;-71
2021/03/31 05:34:34;;;;;;;11.60;6.60;;;;;;;10.41;52.81;97529.06;5011213;28;20175;-71
2021/03/31 05:36:59;;;;;;;15.47;6.83;;;;;;;10.33;53.02;97529.28;5010288;28;20187;-71
2021/03/31 05:39:24;;;;;;;12.23;6.23;;;;;;;10.32;53.19;97527.66;5011031;28;20218;-71
2021/03/31 05:41:50;;;;;;;10.70;6.83;;;;;;;10.44;52.97;97525.22;5010364;28;20234;-71
2021/03/31 05:44:16;;;;;;;9.40;6.10;;;;;;;10.54;52.50;97524.75;5010764;28;20741;-71
2021/03/31 05:46:42;;;;;;;12.60;7.00;;;;;;;10.61;52.57;97520.31;5010302;28;20180;-75
2021/03/31 05:49:08;;;;;;;11.00;6.80;;;;;;;10.58;52.77;97520.75;5010909;28;20258;-71
2021/03/31 05:51:34;;;;;;;12.37;7.07;;;;;;;10.68;52.44;97521.91;4992334;28;20269;-71
2021/03/31 05:54:00;;;;;;;11.13;7.03;;;;;;;10.69;52.10;97526.13;5012714;28;20653;-71
2021/03/31 05:56:26;;;;;;;13.50;7.57;;;;;;;10.85;51.69;97519.59;5014777;28;20186;-72
2021/03/31 05:58:52;;;;;;;8.57;6.43;;;;;;;10.86;51.59;97512.53;5013695;28;20181;-73
2021/03/31 06:01:18;;;;;;;8.57;6.00;;;;;;;11.00;51.48;97509.63;5014695;28;20223;-72
2021/03/31 06:03:46;;;;;;;10.83;6.40;;;;;;;11.12;50.67;97504.50;4995955;28;20183;-73
2021/03/31 06:06:11;;;;;;;7.80;5.83;;;;;;;11.18;50.61;97504.47;5013896;28;20186;-72
2021/03/31 06:08:37;;;;;;;11.63;6.30;;;;;;;11.20;50.72;97510.28;5013937;28;20187;-71
2021/03/31 06:11:03;;;;;;;12.40;6.20;;;;;;;11.23;50.91;97507.25;4996273;28;20175;-71
2021/03/31 06:13:49;;;;;;;11.07;6.23;;;;;;;11.21;50.85;97509.28;5014247;28;20253;-71
2021/03/31 06:16:28;;;;;;;9.60;6.33;;;;;;;11.17;51.20;97510.72;5013818;28;20191;-71
2021/03/31 06:18:53;;;;;;;12.50;6.63;;;;;;;11.18;50.98;97511.53;5001581;28;20206;-71
2021/03/31 06:21:19;;;;;;;9.00;6.47;;;;;;;11.05;51.84;97514.22;5013592;28;20199;-71
2021/03/31 06:23:52;;;;;;;8.57;6.10;;;;;;;11.04;51.73;97512.63;5013266;28;20194;-71
2021/03/31 06:26:17;;;;;;;10.37;6.20;;;;;;;11.00;52.76;97516.69;5006520;28;20168;-71
2021/03/31 06:28:42;;;;;;;8.47;6.27;;;;;;;10.98;52.76;97509.00;5013531;28;20179;-71
2021/03/31 06:31:13;;;;;;;8.80;5.60;;;;;;;11.12;52.79;97510.56;5011688;28;20187;-71
2021/03/31 06:33:41;;;;;;;13.00;5.70;;;;;;;11.32;51.85;97514.84;4995969;28;20277;-71
2021/03/31 06:36:09;;;;;;;11.40;6.40;;;;;;;11.27;51.56;97516.31;5013335;28;20541;-71
2021/03/31 06:38:38;;;;;;;8.60;5.33;;;;;;;11.41;51.50;97511.78;5013667;28;20242;-71
2021/03/31 06:41:11;;;;;;;8.93;5.43;;;;;;;11.68;51.12;97513.16;5012828;28;20202;-71
2021/03/31 06:43:46;;;;;;;14.77;5.93;;;;;;;11.99;49.97;97512.28;5013157;28;20591;-71
2021/03/31 06:46:20;;;;;;;11.40;5.67;;;;;;;12.12;49.04;97508.72;5013366;28;20167;-71
2021/03/31 06:48:48;;;;;;;9.80;5.80;;;;;;;12.27;49.42;97513.63;5012714;28;20207;-71
2021/03/31 06:51:31;;;;;;;9.23;5.70;;;;;;;12.31;49.73;97505.09;5012021;28;20183;-70
2021/03/31 06:54:17;;;;;;;16.13;6.23;;;;;;;12.39;49.40;97503.97;5012231;28;20640;-71
2021/03/31 06:56:45;;;;;;;13.73;6.00;;;;;;;12.35;49.50;97511.50;5012508;28;20237;-71
2021/03/31 06:59:11;;;;;;;13.97;6.00;;;;;;;12.32;49.82;97511.13;5012414;28;20267;-71
2021/03/31 07:01:37;;;;;;;9.47;5.97;;;;;;;12.35;49.25;97513.34;5012551;28;20563;-70
2021/03/31 07:04:05;;;;;;;12.40;7.07;;;;;;;12.48;49.00;97502.69;5011449;28;20191;-71
2021/03/31 07:06:31;;;;;;;8.60;6.20;;;;;;;12.60;48.95;97502.72;5013013;28;20171;-71
2021/03/31 07:08:57;;;;;;;13.13;6.23;;;;;;;12.59;48.58;97501.13;5011954;28;20175;-71
2021/03/31 07:11:35;;;;;;;11.57;5.70;;;;;;;12.69;48.16;97501.41;5013016;28;20191;-71
2021/03/31 07:14:01;;;;;;;8.50;5.53;;;;;;;12.85;47.97;97504.22;4993948;28;20202;-71
2021/03/31 07:16:27;;;;;;;7.47;5.70;;;;;;;13.01;47.33;97499.34;4995337;28;20583;-70
2021/03/31 07:18:56;;;;;;;9.27;5.67;;;;;;;13.07;47.20;97498.44;5011785;28;20187;-71
2021/03/31 07:21:22;;;;;;;7.83;5.77;;;;;;;13.27;46.36;97501.63;4995380;28;20548;-71
2021/03/31 07:23:48;;;;;;;8.07;5.60;;;;;;;13.34;46.11;97502.31;5011650;28;20191;-71
2021/03/31 07:26:15;;;;;;;11.37;6.07;;;;;;;13.48;45.92;97502.94;5012899;28;20179;-71
2021/03/31 07:28:43;;;;;;;8.43;5.67;;;;;;;13.48;45.93;97500.31;5011893;28;20657;-71
2021/03/31 07:31:11;;;;;;;7.63;5.67;;;;;;;13.61;45.93;97503.50;5012473;28;20194;-71
2021/03/31 07:33:41;;;;;;;7.47;5.53;;;;;;;13.70;45.81;97510.06;5012628;28;20213;-70
2021/03/31 07:36:10;;;;;;;8.73;5.83;;;;;;;13.97;45.33;97489.31;5011411;28;20198;-71
2021/03/31 07:38:36;;;;;;;10.73;5.80;;;;;;;14.23;45.10;97492.47;5012237;28;20211;-71
2021/03/31 07:41:02;;;;;;;11.03;5.83;;;;;;;14.27;44.83;97491.78;5011178;28;20187;-71
2021/03/31 07:43:37;;;;;;;11.53;5.47;;;;;;;14.54;44.24;97507.94;5012235;28;20175;-71
2021/03/31 07:46:07;;;;;;;8.70;6.00;;;;;;;14.68;44.18;97493.44;5011641;28;20577;-70
2021/03/31 07:48:34;;;;;;;9.13;5.63;;;;;;;14.69;44.73;97502.97;4997550;28;20188;-70
2021/03/31 07:51:19;;;;;;;8.27;5.70;;;;;;;14.88;44.39;97499.09;5010418;28;20194;-71
2021/03/31 07:53:49;;;;;;;10.87;5.53;;;;;;;15.02;44.45;97502.25;5010983;28;20565;-71
2021/03/31 07:56:17;;;;;;;9.33;5.67;;;;;;;15.05;44.47;97504.41;5012001;28;20191;-71
2021/03/31 07:59:06;;;;;;;12.27;6.20;;;;;;;15.18;44.34;97495.38;4993556;28;20187;-72
2021/03/31 08:01:51;;;;;;;11.25;5.97;;;;;;;15.23;44.11;97493.63;5012211;28;20654;-71
2021/03/31 08:04:19;;;;;;;7.37;5.27;;;;;;;15.31;43.92;97492.44;5011807;28;20245;-71
2021/03/31 08:06:46;;;;;;;12.47;6.10;;;;;;;15.44;42.96;97493.97;4993256;28;20219;-72
2021/03/31 08:09:19;;;;;;;8.93;6.28;;;;;;;15.49;42.51;97492.19;5011319;28;20191;-71
2021/03/31 08:11:47;;;;;;;11.60;6.10;;;;;;;15.67;43.03;97493.84;5011336;28;20195;-72
2021/03/31 08:14:16;;;;;;;14.68;5.85;;;;;;;15.80;44.10;97499.59;5011619;28;20214;-70
2021/03/31 08:16:47;;;;;;;11.20;5.93;;;;;;;15.91;43.21;97500.56;5011095;28;20191;-72
2021/03/31 08:19:13;;;;;;;11.27;6.05;;;;;;;16.13;43.69;97505.88;5011691;28;20183;-70
2021/03/31 08:21:40;;;;;;;8.45;5.30;;;;;;;16.21;43.30;97495.69;4993889;28;20211;-70
2021/03/31 08:24:07;;;;;;;13.48;6.20;;;;;;;16.32;43.47;97496.63;5011091;28;20191;-71
2021/03/31 08:26:38;;;;;;;10.25;6.70;;;;;;;16.32;43.06;97501.91;5011359;28;20765;-72
2021/03/31 08:29:07;;;;;;;11.82;5.80;;;;;;;16.18;43.42;97495.38;5010746;28;20179;-70
2021/03/31 08:31:39;;;;;;;8.70;5.25;;;;;;;16.23;43.29;97496.22;5011703;28;20183;-71
2021/03/31 08:34:05;;;;;;;8.98;6.57;;;;;;;16.30;42.91;97498.72;5010564;28;20222;-71
2021/03/31 08:36:31;;;;;;;14.57;7.80;;;;;;;16.46;42.50;97497.03;5011777;28;20529;-71
2021/03/31 08:38:59;;;;;;;11.40;6.30;;;;;;;16.52;43.00;97510.09;5010125;28;20183;-71
2021/03/31 08:41:27;;;;;;;10.60;6.07;;;;;;;16.69;42.23;97504.78;4993671;28;20199;-71
2021/03/31 08:44:11;;;;;;;11.45;6.45;;;;;;;16.78;42.05;97491.88;4992961;28;20194;-71
2021/03/31 08:46:37;;;;;;;14.88;6.20;;;;;;;16.86;42.22;97492.25;5011612;28;20182;-70
2021/03/31 08:49:02;;;;;;;10.57;6.18;;;;;;;16.89;42.52;97491.75;5010402;28;20187;-71
2021/03/31 08:51:28;;;;;;;11.75;6.38;;;;;;;17.03;43.71;97487.66;5010426;28;20187;-71
2021/03/31 08:54:00;;;;;;;11.15;6.38;;;;;;;17.11;45.13;97489.03;5010583;28;20183;-71
2021/03/31 08:56:25;;;;;;;12.90;6.10;;;;;;;17.11;45.54;97488.28;4986419;28;20183;-71
2021/03/31 08:58:53;;;;;;;16.23;6.55;;;;;;;17.17;45.48;97485.41;5010439;28;20245;-71
2021/03/31 09:01:30;;;;;;;11.90;6.45;;;;;;;17.03;45.58;97482.38;5011336;28;20230;-71
2021/03/31 09:04:22;;;;;;;14.95;6.95;;;;;;;16.88;46.54;97486.72;5010660;28;20193;-71
2021/03/31 09:06:48;;;;;;;9.25;5.68;;;;;;;17.04;46.64;97483.97;5008927;28;20203;-71
2021/03/31 09:09:14;;;;;;;12.32;6.07;;;;;;;16.97;46.32;97479.91;5011252;28;20190;-71
2021/03/31 09:11:39;;;;;;;9.80;6.00;;;;;;;17.01;46.42;97486.31;5010504;28;20187;-71
2021/03/31 09:14:19;;;;;;;12.65;6.80;;;;;;;17.14;46.39;97477.97;4992831;28;20793;-71
2021/03/31 09:17:06;;;;;;;11.68;6.70;;;;;;;17.01;46.30;97479.16;5010515;28;20210;-72
2021/03/31 09:19:37;;;;;;;9.15;6.70;;;;;;;17.01;46.11;97478.34;5002988;28;20519;-71
2021/03/31 09:22:10;;;;;;;14.40;6.45;;;;;;;16.98;46.44;97478.88;5009880;28;20219;-71
2021/03/31 09:24:40;;;;;;;12.23;6.65;;;;;;;17.10;45.67;97473.41;5011269;28;20181;-71
2021/03/31 09:27:08;;;;;;;10.88;7.55;;;;;;;17.14;44.31;97474.50;5010107;28;20191;-71
2021/03/31 09:29:36;;;;;;;16.67;6.55;;;;;;;17.12;44.53;97466.81;5014420;28;20544;-70
2021/03/31 09:32:03;;;;;;;11.40;6.15;;;;;;;17.18;44.99;97470.31;4996689;28;20190;-71
2021/03/31 09:34:29;;;;;;;9.00;5.60;;;;;;;17.31;44.99;97469.91;5014723;28;20186;-71
2021/03/31 09:37:03;;;;;;;12.32;6.97;;;;;;;17.31;44.34;97464.59;5014057;28;20697;-72
2021/03/31 09:39:58;;;;;;;11.32;7.00;;;;;;;17.35;44.24;97463.03;5014984;28;20175;-71
2021/03/31 09:42:27;;;;;;;10.20;6.47;;;;;;;17.45;43.88;97460.47;4984504;28;20187;-71
2021/03/31 09:44:53;;;;;;;10.63;6.35;;;;;;;17.47;44.30;97461.00;5013733;28;20179;-71
2021/03/31 09:47:20;;;;;;;10.68;6.22;;;;;;;17.50;43.85;97465.78;5015039;28;20184;-71
2021/03/31 09:49:49;;;;;;;12.25;6.60;;;;;;;17.62;43.73;97463.00;5014126;28;20186;-73
2021/03/31 09:52:15;;;;;;;9.77;6.90;;;;;;;17.63;43.45;97459.28;5013373;28;20195;-71
2021/03/31 09:54:45;;;;;;;12.43;6.53;;;;;;;17.68;43.54;97456.69;5014766;28;20241;-71
2021/03/31 09:57:12;;;;;;;12.68;7.07;;;;;;;17.69;42.55;97455.63;5013679;28;20167;-71
2021/03/31 09:59:39;;;;;;;11.43;6.68;;;;;;;17.79;43.22;97453.03;5014166;28;20311;-72
2021/03/31 10:02:05;;;;;;;13.05;7.18;;;;;;;17.68;42.92;97446.88;4995473;28;20231;-71
2021/03/31 10:04:35;;;;;;;12.23;6.80;;;;;;;17.76;42.50;97449.06;5014138;28;20548;-72
2021/03/31 10:07:12;;;;;;;10.80;6.85;;;;;;;17.88;42.28;97450.72;5013498;28;20623;-71
2021/03/31 10:09:39;;;;;;;11.93;6.38;;;;;;;17.95;42.46;97440.66;5014916;28;20190;-72
2021/03/31 10:12:05;;;;;;;10.93;6.75;;;;;;;17.98;42.18;97437.50;5013078;28;20851;-72
2021/03/31 10:14:31;;;;;;;11.18;6.53;;;;;;;18.02;41.95;97443.88;5014087;28;20275;-72
2021/03/31 10:16:57;;;;;;;12.52;5.85;;;;;;;18.08;40.80;97434.91;5013598;28;20187;-71
2021/03/31 10:19:22;;;;;;;11.55;5.80;;;;;;;18.24;40.51;97431.25;4996035;28;20176;-71
2021/03/31 10:21:48;;;;;;;11.43;6.40;;;;;;;18.34;39.95;97428.63;5013496;28;20290;-73
2021/03/31 10:24:14;;;;;;;11.80;6.68;;;;;;;18.35;39.97;97432.91;5013724;28;20669;-71
2021/03/31 10:26:47;;;;;;;12.77;6.13;;;;;;;18.51;40.01;97428.44;5014071;28;20682;-72
2021/03/31 10:29:21;;;;;;;8.05;5.72;;;;;;;18.50;39.75;97422.31;5013332;28;20676;-71
2021/03/31 10:31:47;;;;;;;11.05;6.57;;;;;;;18.57;38.88;97424.75;5013883;28;20223;-73
2021/03/31 10:34:14;;;;;;;13.80;7.13;;;;;;;18.61;38.82;97417.88;5013420;28;20215;-71
2021/03/31 10:36:55;;;;;;;14.32;6.60;;;;;;;18.85;39.00;97408.34;5013637;28;20270;-71
2021/03/31 10:50:30;;;;;;;10.90;6.47;;;;;;;18.98;37.64;97417.69;5013736;28;20226;-71
2021/03/31 10:52:58;;;;;;;11.20;6.22;;;;;;;19.02;38.24;97413.41;4993803;28;20190;-73
2021/03/31 10:55:24;;;;;;;9.82;6.38;;;;;;;19.07;37.88;97408.09;4990414;28;20274;-71
2021/03/31 10:57:49;;;;;;;9.00;6.05;;;;;;;19.24;38.71;97410.50;5012885;28;20187;-75
2021/03/31 11:00:15;;;;;;;8.48;6.65;;;;;;;19.33;37.95;97401.75;5012764;28;20230;-71
2021/03/31 11:02:40;;;;;;;9.93;6.88;;;;;;;19.27;36.72;97404.66;5013267;28;20640;-71
2021/03/31 11:05:06;;;;;;;10.13;6.35;;;;;;;19.27;36.49;97396.69;5012488;28;20191;-71
2021/03/31 11:07:32;;;;;;;10.40;6.72;;;;;;;19.13;35.73;97395.63;5013110;28;20187;-71
2021/03/31 11:09:57;;;;;;;11.95;6.40;;;;;;;19.23;36.18;97390.28;5012518;28;20274;-72
2021/03/31 11:12:22;;;;;;;10.95;6.78;;;;;;;19.47;35.73;97389.53;5012763;28;20195;-72
2021/03/31 11:14:48;;;;;;;16.92;7.60;;;;;;;19.47;36.51;97388.72;5012557;28;20183;-75
2021/03/31 11:17:22;;;;;;;9.10;6.65;;;;;;;19.51;36.17;97387.09;4994633;28;20614;-71
2021/03/31 11:27:38;;;;;;;11.25;6.55;;;;;;;19.78;33.88;97368.97;5012804;28;20696;-71
2021/03/31 11:30:08;;;;;;;13.95;7.43;;;;;;;19.74;33.58;97372.44;5012254;28;20274;-71
2021/03/31 11:32:33;;;;;;;8.70;7.00;;;;;;;19.82;33.68;97372.69;4994788;28;20282;-71
2021/03/31 11:34:59;;;;;;;8.98;6.47;;;;;;;19.81;30.83;97372.94;5011217;28;20182;-72
2021/03/31 11:37:24;;;;;;;10.18;6.40;;;;;;;19.87;29.26;97374.53;5012406;28;20282;-71
2021/03/31 11:39:50;;;;;;;8.80;6.85;;;;;;;19.91;28.50;97367.59;5011982;28;20190;-74
2021/03/31 11:42:15;;;;;;;10.15;7.20;;;;;;;19.85;31.14;97360.69;5011601;28;20206;-71
2021/03/31 11:44:41;;;;;;;10.25;6.55;;;;;;;19.89;30.49;97356.44;5012358;28;20506;-70
2021/03/31 11:47:06;;;;;;;17.58;7.75;;;;;;;19.87;31.57;97355.91;5011038;28;20183;-70
2021/03/31 11:49:31;;;;;;;13.00;7.72;;;;;;;19.98;31.18;97351.34;4994462;28;20179;-70
2021/03/31 11:51:57;;;;;;;12.15;7.30;;;;;;;19.93;31.19;97349.50;5009886;28;20195;-71